Calverton Park, Missouri
Current Conditions -  °F | °C
As of 11:51 PM on Tuesday 27 Jan 2015 (Local Time) from KSTL Reporting Station
Clear Clear  
Wind Chill: 23°   Ceiling: Unl
Heat Index: 29°   Visibility: 7mi
Dew Point: 24°   Wind: 6mph
Humidity: 82%   Direction: 110°ESE
Pressure: 30.25"   Gusts: NA
Location:  38.7497°N, 90.2989°W
Report Text: KSTL 280551Z 11005KT 7SM CLR M02/M04 A3025 RMK AO2 SLP253 T10171044 10028 21017 400781017 53004
Loading
Personal Weather Stations






























Interactive Weather Map New forecast layout! Learn more

10-Day Weather Forecast

Advertisements
Track Severe Weather on mobile